»·PEaware :: FDX3171 KGJT-KDEN

FDX3171 :: KGJT-KDEN

FLIGHT INFORMATION

Flight Status: Arrived
Operator:
Federal Express
More flights by this operator :: More flights under this callsign
Pilot: David C. (16084)
Aircraft: BOEING 767-300
(B763)
More flights by this aircraft type
Origin: KGJT Walker
United States
Destination: KDEN Denver Intl
United States
More flights between these airports :: More routes between these airports
Route: JNC7 JNC HAQHY CREDE3
File this flight plan on PilotEdge
Remarks:
Altitude:
(Current/Filed)
26,000ft
Speed:
(Current/Filed)
483kts
Departed: 05-Jan-18 06:08 PM
Arrived: 05-Jan-18 06:51 PM
Distance/Time
Traveled:
183nm/0:43
Distance/Time
To Go:
Arrived

Flight Plot

Page will automatically refresh every two minutes.

Flight plan parsing failed; only flown route is shown


Map Options




Map Legend


Flown Route
Filed Route
Departure Airport
Arrival Airport
Navaid (VOR, NDB)
Fix

Horizontal Profiles

Position Reports

Time Latitude Longitude Heading Altitude Ground
Speed
05-Jan-18 17:46 39.122350 -108.526759 213 4868ft 0kts
05-Jan-18 17:47 39.122350 -108.526759 213 4868ft 0kts
05-Jan-18 17:48 39.122350 -108.526759 213 4868ft 0kts
05-Jan-18 17:49 39.122350 -108.526759 213 4868ft 0kts
05-Jan-18 17:50 39.122350 -108.526759 213 4868ft 0kts
05-Jan-18 17:51 39.122350 -108.526759 213 4868ft 0kts
05-Jan-18 17:52 39.122350 -108.526759 213 4868ft 0kts
05-Jan-18 17:53 39.122350 -108.526759 213 4868ft 0kts
05-Jan-18 17:54 39.122350 -108.526759 213 4868ft 0kts
05-Jan-18 17:55 39.122350 -108.526759 213 4868ft 0kts
05-Jan-18 17:56 39.122350 -108.526759 213 4868ft 0kts
05-Jan-18 17:57 39.122350 -108.526759 213 4868ft 0kts
05-Jan-18 17:58 39.122350 -108.526759 213 4868ft 0kts
05-Jan-18 17:59 39.122350 -108.526759 213 4868ft 0kts
05-Jan-18 18:00 39.122350 -108.526759 213 4868ft 0kts
05-Jan-18 18:01 39.122350 -108.526759 213 4868ft 0kts
05-Jan-18 18:02 39.122350 -108.526759 213 4868ft 0kts
05-Jan-18 18:03 39.122350 -108.526759 213 4868ft 0kts
05-Jan-18 18:04 39.122350 -108.526759 213 4868ft 0kts
05-Jan-18 18:05 39.122350 -108.526759 213 4868ft 0kts
05-Jan-18 18:06 39.122382 -108.526731 213 4868ft 2kts
05-Jan-18 18:07 39.122896 -108.526624 138 4868ft 2kts
05-Jan-18 18:08 39.122980 -108.526756 116 4868ft 0kts
05-Jan-18 18:09 39.122980 -108.526756 116 4868ft 0kts
05-Jan-18 18:10 39.122980 -108.526756 116 4868ft 0kts
05-Jan-18 18:11 39.121833 -108.522871 125 4868ft 31kts
05-Jan-18 18:12 39.118390 -108.516595 124 4868ft 0kts
05-Jan-18 18:13 39.118289 -108.516403 123 4868ft 6kts
05-Jan-18 18:14 39.121137 -108.519179 305 4868ft 91kts
05-Jan-18 18:15 39.147251 -108.577666 275 5993ft 234kts
05-Jan-18 18:16 39.119340 -108.651500 239 5991ft 233kts
05-Jan-18 18:17 39.084355 -108.723725 239 9261ft 241kts
05-Jan-18 18:18 39.028336 -108.756557 152 10977ft 262kts
05-Jan-18 18:19 38.995639 -108.665820 87 13769ft 308kts
05-Jan-18 18:20 38.978083 -108.555880 112 16938ft 330kts
05-Jan-18 18:21 38.941582 -108.443850 115 19870ft 354kts
05-Jan-18 18:22 38.901893 -108.327171 116 22450ft 378kts
05-Jan-18 18:23 38.858675 -108.200928 115 24755ft 402kts
05-Jan-18 18:24 38.825060 -108.061199 83 26312ft 437kts
05-Jan-18 18:25 38.849932 -107.896535 74 26311ft 509kts
05-Jan-18 18:26 38.878217 -107.712685 75 26352ft 534kts
05-Jan-18 18:27 38.906129 -107.529007 75 26355ft 526kts
05-Jan-18 18:28 38.933458 -107.347258 75 26344ft 526kts
05-Jan-18 18:29 38.960616 -107.164631 76 26325ft 525kts
05-Jan-18 18:30 38.987472 -106.981901 75 26324ft 522kts
05-Jan-18 18:31 39.013833 -106.800499 75 26319ft 514kts
05-Jan-18 18:32 39.039770 -106.620106 75 26344ft 515kts
05-Jan-18 18:33 39.063912 -106.450182 75 26358ft 515kts
05-Jan-18 18:34 39.089011 -106.271430 76 26329ft 499kts
05-Jan-18 18:35 39.123495 -106.102299 57 24392ft 490kts
05-Jan-18 18:36 39.186319 -105.958209 55 22132ft 457kts
05-Jan-18 18:37 39.247501 -105.819052 56 20115ft 436kts
05-Jan-18 18:38 39.306373 -105.684689 56 18338ft 426kts
05-Jan-18 18:39 39.363176 -105.554973 57 17107ft 401kts
05-Jan-18 18:40 39.412901 -105.447124 50 16875ft 340kts
05-Jan-18 18:41 39.465413 -105.348472 52 16249ft 335kts
05-Jan-18 18:42 39.517291 -105.249793 52 16002ft 334kts
05-Jan-18 18:43 39.569269 -105.150551 52 15942ft 334kts
05-Jan-18 18:44 39.621047 -105.051357 51 15807ft 330kts
05-Jan-18 18:45 39.672043 -104.953304 51 15638ft 327kts
05-Jan-18 18:46 39.726715 -104.859604 28 14043ft 309kts
05-Jan-18 18:47 39.806442 -104.841551 358 12312ft 292kts
05-Jan-18 18:48 39.883424 -104.839576 357 10950ft 242kts
05-Jan-18 18:49 39.947809 -104.839377 357 9230ft 231kts
05-Jan-18 18:50 40.011681 -104.839457 7 7252ft 232kts
05-Jan-18 18:51 40.028180 -104.773406 107 7038ft 214kts
05-Jan-18 18:52 40.004294 -104.717324 123 6278ft 165kts
05-Jan-18 18:53 39.976738 -104.671581 123 6005ft 161kts
05-Jan-18 18:54 39.935992 -104.658012 180 6018ft 173kts
05-Jan-18 18:55 39.888562 -104.659757 176 5964ft 166kts
05-Jan-18 18:56 39.847192 -104.660243 180 5442ft 92kts
05-Jan-18 18:57 39.831181 -104.660467 180 5442ft 26kts
05-Jan-18 18:58 39.829383 -104.665397 270 5442ft 22kts
05-Jan-18 18:59 39.830670 -104.674111 3 5442ft 11kts

Navigation Log

Ident Type
Flight plan parsing failed, navigation log unavailable